sensor_id;sensor_type;location;lat;lon;timestamp;P1;durP1;ratioP1;P2;durP2;ratioP2
48327;SDS011;34136;51.022;7.082;2023-02-11T00:59:59;38.35;;;26.90;;
48327;SDS011;34136;51.022;7.082;2023-02-11T01:02:45;36.88;;;26.17;;
48327;SDS011;34136;51.022;7.082;2023-02-11T01:05:31;40.55;;;27.63;;
48327;SDS011;34136;51.022;7.082;2023-02-11T01:08:18;43.50;;;29.05;;
48327;SDS011;34136;51.022;7.082;2023-02-11T01:11:05;43.10;;;28.58;;
48327;SDS011;34136;51.022;7.082;2023-02-11T01:13:57;39.78;;;28.50;;
48327;SDS011;34136;51.022;7.082;2023-02-11T01:16:43;48.40;;;33.08;;
48327;SDS011;34136;51.022;7.082;2023-02-11T01:19:30;56.70;;;35.25;;
48327;SDS011;34136;51.022;7.082;2023-02-11T01:22:16;48.15;;;32.80;;
48327;SDS011;34136;51.022;7.082;2023-02-11T01:25:02;45.80;;;31.75;;
48327;SDS011;34136;51.022;7.082;2023-02-11T01:27:49;44.80;;;30.60;;
48327;SDS011;34136;51.022;7.082;2023-02-11T01:30:35;43.00;;;29.65;;
48327;SDS011;34136;51.022;7.082;2023-02-11T01:33:26;41.13;;;27.23;;
48327;SDS011;34136;51.022;7.082;2023-02-11T01:36:12;45.53;;;29.35;;
48327;SDS011;34136;51.022;7.082;2023-02-11T01:38:59;46.70;;;28.92;;
48327;SDS011;34136;51.022;7.082;2023-02-11T01:41:45;41.30;;;27.50;;
48327;SDS011;34136;51.022;7.082;2023-02-11T01:44:36;42.10;;;27.92;;
48327;SDS011;34136;51.022;7.082;2023-02-11T01:47:31;37.88;;;26.13;;
48327;SDS011;34136;51.022;7.082;2023-02-11T01:50:17;38.78;;;27.10;;
48327;SDS011;34136;51.022;7.082;2023-02-11T01:53:05;39.13;;;27.10;;
48327;SDS011;34136;51.022;7.082;2023-02-11T01:55:54;40.97;;;26.67;;
48327;SDS011;34136;51.022;7.082;2023-02-11T01:58:44;39.22;;;25.50;;
48327;SDS011;34136;51.022;7.082;2023-02-11T02:01:34;36.13;;;25.15;;
48327;SDS011;34136;51.022;7.082;2023-02-11T02:04:40;36.40;;;26.65;;
48327;SDS011;34136;51.022;7.082;2023-02-11T02:11:23;39.05;;;27.02;;
48327;SDS011;34136;51.022;7.082;2023-02-11T02:14:09;34.58;;;26.27;;
48327;SDS011;34136;51.022;7.082;2023-02-11T02:17:27;39.45;;;26.85;;
48327;SDS011;34136;51.022;7.082;2023-02-11T02:39:10;38.58;;;26.20;;
48327;SDS011;34136;51.022;7.082;2023-02-11T02:42:08;38.08;;;25.92;;
48327;SDS011;34136;51.022;7.082;2023-02-11T02:44:55;40.92;;;26.08;;
48327;SDS011;34136;51.022;7.082;2023-02-11T02:47:41;33.63;;;25.67;;
48327;SDS011;34136;51.022;7.082;2023-02-11T02:50:30;36.72;;;25.55;;
48327;SDS011;34136;51.022;7.082;2023-02-11T02:53:25;34.85;;;23.55;;
48327;SDS011;34136;51.022;7.082;2023-02-11T03:03:12;34.75;;;25.58;;
48327;SDS011;34136;51.022;7.082;2023-02-11T03:06:10;38.65;;;26.85;;
48327;SDS011;34136;51.022;7.082;2023-02-11T03:09:13;33.80;;;24.00;;
48327;SDS011;34136;51.022;7.082;2023-02-11T03:12:07;35.58;;;25.75;;
48327;SDS011;34136;51.022;7.082;2023-02-11T03:15:04;35.03;;;24.65;;
48327;SDS011;34136;51.022;7.082;2023-02-11T03:17:52;37.35;;;26.27;;
48327;SDS011;34136;51.022;7.082;2023-02-11T03:20:52;37.38;;;24.92;;
48327;SDS011;34136;51.022;7.082;2023-02-11T03:23:40;36.10;;;24.90;;
48327;SDS011;34136;51.022;7.082;2023-02-11T03:26:48;37.35;;;26.77;;
48327;SDS011;34136;51.022;7.082;2023-02-11T03:30:17;39.03;;;26.08;;
48327;SDS011;34136;51.022;7.082;2023-02-11T03:33:06;39.25;;;26.92;;
48327;SDS011;34136;51.022;7.082;2023-02-11T03:36:03;40.97;;;26.55;;
48327;SDS011;34136;51.022;7.082;2023-02-11T03:38:56;38.55;;;25.77;;
48327;SDS011;34136;51.022;7.082;2023-02-11T03:41:45;36.13;;;25.83;;
48327;SDS011;34136;51.022;7.082;2023-02-11T03:44:41;39.60;;;26.83;;
48327;SDS011;34136;51.022;7.082;2023-02-11T03:47:31;35.15;;;26.25;;
48327;SDS011;34136;51.022;7.082;2023-02-11T03:50:22;40.45;;;26.00;;
48327;SDS011;34136;51.022;7.082;2023-02-11T03:53:11;37.63;;;26.40;;
48327;SDS011;34136;51.022;7.082;2023-02-11T03:56:01;38.33;;;27.65;;
48327;SDS011;34136;51.022;7.082;2023-02-11T03:58:51;42.47;;;27.75;;
48327;SDS011;34136;51.022;7.082;2023-02-11T04:01:37;39.15;;;27.35;;
48327;SDS011;34136;51.022;7.082;2023-02-11T04:04:24;42.47;;;28.52;;
48327;SDS011;34136;51.022;7.082;2023-02-11T04:07:14;40.38;;;29.17;;
48327;SDS011;34136;51.022;7.082;2023-02-11T04:10:02;38.80;;;28.33;;
48327;SDS011;34136;51.022;7.082;2023-02-11T04:12:49;40.50;;;28.50;;
48327;SDS011;34136;51.022;7.082;2023-02-11T04:15:35;38.58;;;29.75;;
48327;SDS011;34136;51.022;7.082;2023-02-11T04:18:22;43.25;;;29.33;;
48327;SDS011;34136;51.022;7.082;2023-02-11T04:21:11;43.55;;;30.65;;
48327;SDS011;34136;51.022;7.082;2023-02-11T04:24:04;42.80;;;29.80;;
48327;SDS011;34136;51.022;7.082;2023-02-11T04:26:58;45.83;;;30.88;;
48327;SDS011;34136;51.022;7.082;2023-02-11T04:29:45;44.58;;;29.65;;
48327;SDS011;34136;51.022;7.082;2023-02-11T04:32:36;47.28;;;30.67;;
48327;SDS011;34136;51.022;7.082;2023-02-11T04:35:28;47.97;;;30.23;;
48327;SDS011;34136;51.022;7.082;2023-02-11T04:38:15;46.35;;;29.85;;
48327;SDS011;34136;51.022;7.082;2023-02-11T04:41:02;40.20;;;28.42;;
48327;SDS011;34136;51.022;7.082;2023-02-11T04:43:51;42.33;;;29.77;;
48327;SDS011;34136;51.022;7.082;2023-02-11T04:46:42;42.35;;;30.48;;
48327;SDS011;34136;51.022;7.082;2023-02-11T04:49:32;43.03;;;30.38;;
48327;SDS011;34136;51.022;7.082;2023-02-11T04:52:21;39.03;;;28.60;;
48327;SDS011;34136;51.022;7.082;2023-02-11T04:55:12;48.42;;;30.23;;
48327;SDS011;34136;51.022;7.082;2023-02-11T04:57:58;43.17;;;30.10;;
48327;SDS011;34136;51.022;7.082;2023-02-11T05:00:45;41.90;;;28.85;;
48327;SDS011;34136;51.022;7.082;2023-02-11T05:03:57;42.83;;;28.40;;
48327;SDS011;34136;51.022;7.082;2023-02-11T05:06:43;44.08;;;29.02;;
48327;SDS011;34136;51.022;7.082;2023-02-11T05:09:34;43.47;;;29.73;;
48327;SDS011;34136;51.022;7.082;2023-02-11T05:12:20;43.47;;;30.00;;
48327;SDS011;34136;51.022;7.082;2023-02-11T05:15:08;41.72;;;29.88;;
48327;SDS011;34136;51.022;7.082;2023-02-11T05:18:05;45.38;;;30.10;;
48327;SDS011;34136;51.022;7.082;2023-02-11T05:20:57;44.53;;;29.33;;
48327;SDS011;34136;51.022;7.082;2023-02-11T05:23:43;44.42;;;28.63;;
48327;SDS011;34136;51.022;7.082;2023-02-11T05:26:31;45.60;;;29.35;;
48327;SDS011;34136;51.022;7.082;2023-02-11T05:29:24;43.72;;;29.17;;
48327;SDS011;34136;51.022;7.082;2023-02-11T05:32:12;41.30;;;28.48;;
48327;SDS011;34136;51.022;7.082;2023-02-11T05:35:04;45.15;;;29.38;;
48327;SDS011;34136;51.022;7.082;2023-02-11T05:37:56;42.10;;;27.20;;
48327;SDS011;34136;51.022;7.082;2023-02-11T05:40:53;39.17;;;28.45;;
48327;SDS011;34136;51.022;7.082;2023-02-11T05:43:49;47.30;;;29.02;;
48327;SDS011;34136;51.022;7.082;2023-02-11T05:46:35;41.88;;;27.33;;
48327;SDS011;34136;51.022;7.082;2023-02-11T05:49:28;42.22;;;28.70;;
48327;SDS011;34136;51.022;7.082;2023-02-11T05:52:15;47.83;;;28.67;;
48327;SDS011;34136;51.022;7.082;2023-02-11T05:55:01;48.55;;;28.92;;
48327;SDS011;34136;51.022;7.082;2023-02-11T05:57:59;47.00;;;28.55;;
48327;SDS011;34136;51.022;7.082;2023-02-11T06:00:46;43.65;;;28.60;;
48327;SDS011;34136;51.022;7.082;2023-02-11T06:03:58;40.00;;;27.27;;
48327;SDS011;34136;51.022;7.082;2023-02-11T06:06:46;49.92;;;29.35;;
48327;SDS011;34136;51.022;7.082;2023-02-11T06:09:46;48.92;;;30.77;;
48327;SDS011;34136;51.022;7.082;2023-02-11T06:12:37;51.55;;;32.53;;
48327;SDS011;34136;51.022;7.082;2023-02-11T06:15:27;50.95;;;32.58;;
48327;SDS011;34136;51.022;7.082;2023-02-11T06:18:13;53.75;;;32.80;;
48327;SDS011;34136;51.022;7.082;2023-02-11T06:21:04;53.65;;;32.92;;
48327;SDS011;34136;51.022;7.082;2023-02-11T06:24:01;54.10;;;34.00;;
48327;SDS011;34136;51.022;7.082;2023-02-11T06:26:49;49.17;;;34.22;;
48327;SDS011;34136;51.022;7.082;2023-02-11T06:29:38;59.90;;;35.95;;
48327;SDS011;34136;51.022;7.082;2023-02-11T06:32:25;53.83;;;34.35;;
48327;SDS011;34136;51.022;7.082;2023-02-11T06:35:12;53.15;;;34.80;;
48327;SDS011;34136;51.022;7.082;2023-02-11T06:38:08;53.72;;;34.90;;
48327;SDS011;34136;51.022;7.082;2023-02-11T06:40:57;54.35;;;35.58;;
48327;SDS011;34136;51.022;7.082;2023-02-11T06:43:44;61.05;;;37.95;;
48327;SDS011;34136;51.022;7.082;2023-02-11T06:46:35;63.28;;;40.28;;
48327;SDS011;34136;51.022;7.082;2023-02-11T06:49:25;63.20;;;39.45;;
48327;SDS011;34136;51.022;7.082;2023-02-11T06:52:12;61.75;;;39.78;;
48327;SDS011;34136;51.022;7.082;2023-02-11T06:55:01;68.70;;;42.22;;
48327;SDS011;34136;51.022;7.082;2023-02-11T06:57:48;65.90;;;42.08;;
48327;SDS011;34136;51.022;7.082;2023-02-11T07:00:37;70.88;;;43.05;;
48327;SDS011;34136;51.022;7.082;2023-02-11T07:03:23;65.95;;;41.22;;
48327;SDS011;34136;51.022;7.082;2023-02-11T07:06:18;63.72;;;41.70;;
48327;SDS011;34136;51.022;7.082;2023-02-11T07:09:06;72.63;;;42.63;;
48327;SDS011;34136;51.022;7.082;2023-02-11T07:11:55;67.57;;;40.40;;
48327;SDS011;34136;51.022;7.082;2023-02-11T07:14:46;73.38;;;43.60;;
48327;SDS011;34136;51.022;7.082;2023-02-11T07:17:33;71.50;;;42.40;;
48327;SDS011;34136;51.022;7.082;2023-02-11T07:20:20;65.82;;;40.55;;
48327;SDS011;34136;51.022;7.082;2023-02-11T07:23:08;71.75;;;44.67;;
48327;SDS011;34136;51.022;7.082;2023-02-11T07:26:02;71.10;;;42.60;;
48327;SDS011;34136;51.022;7.082;2023-02-11T07:29:20;76.27;;;45.20;;
48327;SDS011;34136;51.022;7.082;2023-02-11T07:32:12;68.43;;;44.25;;
48327;SDS011;34136;51.022;7.082;2023-02-11T07:34:58;66.03;;;43.90;;
48327;SDS011;34136;51.022;7.082;2023-02-11T07:37:51;78.05;;;45.03;;
48327;SDS011;34136;51.022;7.082;2023-02-11T07:40:37;79.43;;;47.15;;
48327;SDS011;34136;51.022;7.082;2023-02-11T07:43:31;85.47;;;49.97;;
48327;SDS011;34136;51.022;7.082;2023-02-11T07:46:18;79.55;;;50.03;;
48327;SDS011;34136;51.022;7.082;2023-02-11T07:49:10;78.70;;;47.05;;
48327;SDS011;34136;51.022;7.082;2023-02-11T07:52:01;76.15;;;47.72;;
48327;SDS011;34136;51.022;7.082;2023-02-11T07:55:03;86.33;;;49.17;;
48327;SDS011;34136;51.022;7.082;2023-02-11T07:57:50;82.22;;;49.60;;
48327;SDS011;34136;51.022;7.082;2023-02-11T08:00:36;71.00;;;48.97;;
48327;SDS011;34136;51.022;7.082;2023-02-11T08:03:22;78.75;;;47.67;;
48327;SDS011;34136;51.022;7.082;2023-02-11T08:06:13;75.43;;;46.15;;
48327;SDS011;34136;51.022;7.082;2023-02-11T08:09:37;77.72;;;48.80;;
48327;SDS011;34136;51.022;7.082;2023-02-11T08:12:29;77.83;;;49.00;;
48327;SDS011;34136;51.022;7.082;2023-02-11T08:15:18;86.18;;;49.20;;
48327;SDS011;34136;51.022;7.082;2023-02-11T08:18:04;83.72;;;50.40;;
48327;SDS011;34136;51.022;7.082;2023-02-11T08:20:54;85.85;;;49.60;;
48327;SDS011;34136;51.022;7.082;2023-02-11T08:23:51;86.43;;;51.03;;
48327;SDS011;34136;51.022;7.082;2023-02-11T08:26:37;87.32;;;52.20;;
48327;SDS011;34136;51.022;7.082;2023-02-11T08:29:24;87.63;;;52.75;;
48327;SDS011;34136;51.022;7.082;2023-02-11T08:32:10;89.43;;;54.30;;
48327;SDS011;34136;51.022;7.082;2023-02-11T08:34:57;98.50;;;54.28;;
48327;SDS011;34136;51.022;7.082;2023-02-11T08:37:45;92.60;;;55.08;;
48327;SDS011;34136;51.022;7.082;2023-02-11T08:40:35;101.32;;;57.13;;
48327;SDS011;34136;51.022;7.082;2023-02-11T08:43:26;112.45;;;59.17;;
48327;SDS011;34136;51.022;7.082;2023-02-11T08:46:17;104.80;;;56.80;;
48327;SDS011;34136;51.022;7.082;2023-02-11T08:49:04;113.10;;;57.70;;
48327;SDS011;34136;51.022;7.082;2023-02-11T08:51:50;102.45;;;56.45;;
48327;SDS011;34136;51.022;7.082;2023-02-11T08:54:54;97.07;;;54.60;;
48327;SDS011;34136;51.022;7.082;2023-02-11T08:57:41;115.22;;;57.38;;
48327;SDS011;34136;51.022;7.082;2023-02-11T09:00:31;112.10;;;57.17;;
48327;SDS011;34136;51.022;7.082;2023-02-11T09:03:47;114.20;;;56.33;;
48327;SDS011;34136;51.022;7.082;2023-02-11T09:06:33;117.63;;;57.47;;
48327;SDS011;34136;51.022;7.082;2023-02-11T09:09:23;115.38;;;56.90;;
48327;SDS011;34136;51.022;7.082;2023-02-11T09:12:12;109.25;;;55.63;;
48327;SDS011;34136;51.022;7.082;2023-02-11T09:14:58;116.65;;;59.47;;
48327;SDS011;34136;51.022;7.082;2023-02-11T09:17:45;119.22;;;56.35;;
48327;SDS011;34136;51.022;7.082;2023-02-11T09:20:31;125.50;;;56.97;;
48327;SDS011;34136;51.022;7.082;2023-02-11T09:23:17;118.22;;;56.53;;
48327;SDS011;34136;51.022;7.082;2023-02-11T09:26:04;114.65;;;57.30;;
48327;SDS011;34136;51.022;7.082;2023-02-11T09:28:52;106.65;;;54.58;;
48327;SDS011;34136;51.022;7.082;2023-02-11T09:31:38;116.50;;;54.83;;
48327;SDS011;34136;51.022;7.082;2023-02-11T09:34:27;111.70;;;54.72;;
48327;SDS011;34136;51.022;7.082;2023-02-11T09:37:14;111.57;;;52.28;;
48327;SDS011;34136;51.022;7.082;2023-02-11T09:40:01;137.10;;;65.00;;
48327;SDS011;34136;51.022;7.082;2023-02-11T09:42:59;127.05;;;65.50;;
48327;SDS011;34136;51.022;7.082;2023-02-11T09:45:48;119.95;;;59.38;;
48327;SDS011;34136;51.022;7.082;2023-02-11T09:49:00;97.35;;;54.50;;
48327;SDS011;34136;51.022;7.082;2023-02-11T09:51:49;97.63;;;53.65;;
48327;SDS011;34136;51.022;7.082;2023-02-11T09:54:53;110.32;;;53.20;;
48327;SDS011;34136;51.022;7.082;2023-02-11T09:57:42;102.70;;;52.72;;
48327;SDS011;34136;51.022;7.082;2023-02-11T10:03:59;102.30;;;52.10;;
48327;SDS011;34136;51.022;7.082;2023-02-11T10:26:15;89.68;;;48.65;;
48327;SDS011;34136;51.022;7.082;2023-02-11T10:29:05;97.93;;;52.08;;
48327;SDS011;34136;51.022;7.082;2023-02-11T10:32:10;95.93;;;50.20;;
48327;SDS011;34136;51.022;7.082;2023-02-11T10:35:14;92.40;;;50.38;;
48327;SDS011;34136;51.022;7.082;2023-02-11T10:38:13;96.15;;;52.08;;
48327;SDS011;34136;51.022;7.082;2023-02-11T10:41:03;89.93;;;49.60;;
48327;SDS011;34136;51.022;7.082;2023-02-11T10:43:53;82.82;;;48.65;;
48327;SDS011;34136;51.022;7.082;2023-02-11T10:50:46;86.07;;;53.30;;
48327;SDS011;34136;51.022;7.082;2023-02-11T10:53:38;91.43;;;54.03;;
48327;SDS011;34136;51.022;7.082;2023-02-11T10:56:25;87.20;;;54.00;;
48327;SDS011;34136;51.022;7.082;2023-02-11T10:59:39;86.40;;;53.45;;
48327;SDS011;34136;51.022;7.082;2023-02-11T11:02:37;90.28;;;52.55;;
48327;SDS011;34136;51.022;7.082;2023-02-11T11:06:07;88.68;;;55.75;;
48327;SDS011;34136;51.022;7.082;2023-02-11T11:08:45;87.22;;;52.92;;
48327;SDS011;34136;51.022;7.082;2023-02-11T11:11:35;87.00;;;52.92;;
48327;SDS011;34136;51.022;7.082;2023-02-11T11:14:52;83.25;;;55.53;;
48327;SDS011;34136;51.022;7.082;2023-02-11T11:17:49;91.25;;;57.65;;
48327;SDS011;34136;51.022;7.082;2023-02-11T11:20:59;83.18;;;54.92;;
48327;SDS011;34136;51.022;7.082;2023-02-11T11:23:48;84.95;;;55.42;;
48327;SDS011;34136;51.022;7.082;2023-02-11T11:26:46;85.65;;;56.08;;
48327;SDS011;34136;51.022;7.082;2023-02-11T11:29:38;87.68;;;55.15;;
48327;SDS011;34136;51.022;7.082;2023-02-11T11:32:30;81.35;;;53.30;;
48327;SDS011;34136;51.022;7.082;2023-02-11T11:35:26;90.10;;;55.30;;
48327;SDS011;34136;51.022;7.082;2023-02-11T11:38:37;91.82;;;55.97;;
48327;SDS011;34136;51.022;7.082;2023-02-11T11:42:02;88.45;;;54.95;;
48327;SDS011;34136;51.022;7.082;2023-02-11T11:47:51;86.78;;;57.08;;
48327;SDS011;34136;51.022;7.082;2023-02-11T11:51:10;84.43;;;53.42;;
48327;SDS011;34136;51.022;7.082;2023-02-11T11:53:59;77.57;;;49.22;;
48327;SDS011;34136;51.022;7.082;2023-02-11T11:57:01;78.45;;;49.80;;
48327;SDS011;34136;51.022;7.082;2023-02-11T12:00:48;70.40;;;44.80;;
48327;SDS011;34136;51.022;7.082;2023-02-11T12:04:18;72.65;;;44.83;;
48327;SDS011;34136;51.022;7.082;2023-02-11T12:36:36;74.72;;;42.55;;
48327;SDS011;34136;51.022;7.082;2023-02-11T12:49:42;73.15;;;46.67;;
48327;SDS011;34136;51.022;7.082;2023-02-11T12:55:41;78.78;;;47.80;;
48327;SDS011;34136;51.022;7.082;2023-02-11T12:58:54;71.25;;;45.85;;
48327;SDS011;34136;51.022;7.082;2023-02-11T13:02:00;77.63;;;48.20;;
48327;SDS011;34136;51.022;7.082;2023-02-11T13:08:31;86.43;;;54.03;;
48327;SDS011;34136;51.022;7.082;2023-02-11T13:11:49;84.40;;;52.27;;
48327;SDS011;34136;51.022;7.082;2023-02-11T13:14:41;80.18;;;52.03;;
48327;SDS011;34136;51.022;7.082;2023-02-11T13:17:52;84.53;;;51.50;;
48327;SDS011;34136;51.022;7.082;2023-02-11T13:33:19;77.93;;;49.80;;
48327;SDS011;34136;51.022;7.082;2023-02-11T13:36:25;76.88;;;50.03;;
48327;SDS011;34136;51.022;7.082;2023-02-11T13:39:58;92.65;;;57.25;;
48327;SDS011;34136;51.022;7.082;2023-02-11T13:43:21;89.53;;;57.67;;
48327;SDS011;34136;51.022;7.082;2023-02-11T13:46:26;92.43;;;57.35;;
48327;SDS011;34136;51.022;7.082;2023-02-11T13:49:38;89.28;;;54.55;;
48327;SDS011;34136;51.022;7.082;2023-02-11T13:52:45;85.97;;;54.25;;
48327;SDS011;34136;51.022;7.082;2023-02-11T13:55:31;93.22;;;56.42;;
48327;SDS011;34136;51.022;7.082;2023-02-11T14:02:02;83.25;;;53.75;;
48327;SDS011;34136;51.022;7.082;2023-02-11T14:04:25;88.60;;;56.10;;
48327;SDS011;34136;51.022;7.082;2023-02-11T14:07:20;89.28;;;56.10;;
48327;SDS011;34136;51.022;7.082;2023-02-11T14:16:21;88.93;;;57.20;;
48327;SDS011;34136;51.022;7.082;2023-02-11T14:19:08;98.25;;;62.63;;
48327;SDS011;34136;51.022;7.082;2023-02-11T14:21:59;94.97;;;61.50;;
48327;SDS011;34136;51.022;7.082;2023-02-11T14:27:56;88.55;;;57.65;;
48327;SDS011;34136;51.022;7.082;2023-02-11T14:30:50;105.50;;;63.08;;
48327;SDS011;34136;51.022;7.082;2023-02-11T14:43:25;92.18;;;57.00;;
48327;SDS011;34136;51.022;7.082;2023-02-11T14:46:34;95.28;;;56.33;;
48327;SDS011;34136;51.022;7.082;2023-02-11T14:49:28;88.07;;;56.35;;
48327;SDS011;34136;51.022;7.082;2023-02-11T14:52:25;81.90;;;54.22;;
48327;SDS011;34136;51.022;7.082;2023-02-11T14:56:02;102.55;;;61.72;;
48327;SDS011;34136;51.022;7.082;2023-02-11T14:58:59;98.30;;;60.63;;
48327;SDS011;34136;51.022;7.082;2023-02-11T15:01:55;90.88;;;57.63;;
48327;SDS011;34136;51.022;7.082;2023-02-11T15:04:42;98.97;;;63.88;;
48327;SDS011;34136;51.022;7.082;2023-02-11T15:07:31;87.72;;;56.53;;
48327;SDS011;34136;51.022;7.082;2023-02-11T15:10:40;93.60;;;58.33;;
48327;SDS011;34136;51.022;7.082;2023-02-11T15:13:29;98.07;;;60.00;;
48327;SDS011;34136;51.022;7.082;2023-02-11T15:16:24;103.63;;;62.40;;
48327;SDS011;34136;51.022;7.082;2023-02-11T15:19:25;102.35;;;61.97;;
48327;SDS011;34136;51.022;7.082;2023-02-11T15:22:19;97.85;;;60.83;;
48327;SDS011;34136;51.022;7.082;2023-02-11T15:25:16;97.13;;;60.58;;
48327;SDS011;34136;51.022;7.082;2023-02-11T15:28:09;99.90;;;61.63;;
48327;SDS011;34136;51.022;7.082;2023-02-11T15:31:15;96.03;;;60.75;;
48327;SDS011;34136;51.022;7.082;2023-02-11T15:34:10;96.30;;;60.03;;
48327;SDS011;34136;51.022;7.082;2023-02-11T15:36:57;99.30;;;62.80;;
48327;SDS011;34136;51.022;7.082;2023-02-11T15:39:43;101.03;;;62.67;;
48327;SDS011;34136;51.022;7.082;2023-02-11T15:42:29;103.18;;;62.10;;
48327;SDS011;34136;51.022;7.082;2023-02-11T15:45:20;94.88;;;60.80;;
48327;SDS011;34136;51.022;7.082;2023-02-11T15:51:39;85.65;;;54.13;;
48327;SDS011;34136;51.022;7.082;2023-02-11T15:55:05;89.05;;;56.03;;
48327;SDS011;34136;51.022;7.082;2023-02-11T15:58:21;86.45;;;53.83;;
48327;SDS011;34136;51.022;7.082;2023-02-11T16:01:08;84.85;;;52.45;;
48327;SDS011;34136;51.022;7.082;2023-02-11T16:03:56;87.60;;;54.20;;
48327;SDS011;34136;51.022;7.082;2023-02-11T16:06:44;87.88;;;54.00;;
48327;SDS011;34136;51.022;7.082;2023-02-11T16:09:41;82.55;;;50.35;;
48327;SDS011;34136;51.022;7.082;2023-02-11T16:12:33;78.60;;;49.70;;
48327;SDS011;34136;51.022;7.082;2023-02-11T16:18:43;80.88;;;50.80;;
48327;SDS011;34136;51.022;7.082;2023-02-11T16:21:41;84.45;;;50.67;;
48327;SDS011;34136;51.022;7.082;2023-02-11T16:24:29;82.97;;;51.30;;
48327;SDS011;34136;51.022;7.082;2023-02-11T16:27:25;83.97;;;51.45;;
48327;SDS011;34136;51.022;7.082;2023-02-11T16:30:32;83.70;;;53.40;;
48327;SDS011;34136;51.022;7.082;2023-02-11T16:33:34;85.72;;;50.63;;
48327;SDS011;34136;51.022;7.082;2023-02-11T16:36:30;85.90;;;50.33;;
48327;SDS011;34136;51.022;7.082;2023-02-11T16:39:17;77.18;;;48.65;;
48327;SDS011;34136;51.022;7.082;2023-02-11T16:42:07;80.05;;;50.78;;
48327;SDS011;34136;51.022;7.082;2023-02-11T16:45:00;81.78;;;49.60;;
48327;SDS011;34136;51.022;7.082;2023-02-11T16:47:47;80.65;;;49.42;;
48327;SDS011;34136;51.022;7.082;2023-02-11T16:50:33;80.90;;;49.00;;
48327;SDS011;34136;51.022;7.082;2023-02-11T16:53:29;83.55;;;51.10;;
48327;SDS011;34136;51.022;7.082;2023-02-11T16:56:16;80.93;;;50.38;;
48327;SDS011;34136;51.022;7.082;2023-02-11T16:59:05;81.93;;;50.13;;
48327;SDS011;34136;51.022;7.082;2023-02-11T17:02:25;82.13;;;51.08;;
48327;SDS011;34136;51.022;7.082;2023-02-11T17:05:33;79.65;;;49.20;;
48327;SDS011;34136;51.022;7.082;2023-02-11T17:08:21;81.07;;;50.65;;
48327;SDS011;34136;51.022;7.082;2023-02-11T17:11:08;77.72;;;50.28;;
48327;SDS011;34136;51.022;7.082;2023-02-11T17:13:59;78.45;;;50.47;;
48327;SDS011;34136;51.022;7.082;2023-02-11T17:17:26;81.93;;;52.55;;
48327;SDS011;34136;51.022;7.082;2023-02-11T17:20:17;85.38;;;52.90;;
48327;SDS011;34136;51.022;7.082;2023-02-11T17:23:04;89.97;;;56.88;;
48327;SDS011;34136;51.022;7.082;2023-02-11T17:26:10;87.45;;;54.65;;
48327;SDS011;34136;51.022;7.082;2023-02-11T17:28:57;83.70;;;52.80;;
48327;SDS011;34136;51.022;7.082;2023-02-11T17:31:43;88.95;;;53.92;;
48327;SDS011;34136;51.022;7.082;2023-02-11T17:34:33;90.05;;;55.65;;
48327;SDS011;34136;51.022;7.082;2023-02-11T17:37:22;88.38;;;53.13;;
48327;SDS011;34136;51.022;7.082;2023-02-11T17:40:14;90.57;;;53.42;;
48327;SDS011;34136;51.022;7.082;2023-02-11T17:43:00;89.47;;;54.15;;
48327;SDS011;34136;51.022;7.082;2023-02-11T17:45:52;85.80;;;52.97;;
48327;SDS011;34136;51.022;7.082;2023-02-11T17:48:38;87.13;;;54.42;;
48327;SDS011;34136;51.022;7.082;2023-02-11T17:51:36;89.18;;;53.95;;
48327;SDS011;34136;51.022;7.082;2023-02-11T17:58:07;85.97;;;52.72;;
48327;SDS011;34136;51.022;7.082;2023-02-11T18:00:56;84.20;;;53.35;;
48327;SDS011;34136;51.022;7.082;2023-02-11T18:03:46;82.82;;;52.05;;
48327;SDS011;34136;51.022;7.082;2023-02-11T18:06:32;99.85;;;54.92;;
48327;SDS011;34136;51.022;7.082;2023-02-11T18:09:24;88.40;;;52.55;;
48327;SDS011;34136;51.022;7.082;2023-02-11T18:12:17;93.60;;;56.13;;
48327;SDS011;34136;51.022;7.082;2023-02-11T18:15:04;88.03;;;53.45;;
48327;SDS011;34136;51.022;7.082;2023-02-11T18:17:51;85.32;;;52.20;;
48327;SDS011;34136;51.022;7.082;2023-02-11T18:20:42;91.72;;;53.67;;
48327;SDS011;34136;51.022;7.082;2023-02-11T18:23:28;86.72;;;54.20;;
48327;SDS011;34136;51.022;7.082;2023-02-11T18:26:18;91.07;;;53.80;;
48327;SDS011;34136;51.022;7.082;2023-02-11T18:29:08;86.55;;;53.00;;
48327;SDS011;34136;51.022;7.082;2023-02-11T18:31:56;84.50;;;52.22;;
48327;SDS011;34136;51.022;7.082;2023-02-11T18:34:43;84.65;;;53.67;;
48327;SDS011;34136;51.022;7.082;2023-02-11T18:37:29;84.10;;;53.00;;
48327;SDS011;34136;51.022;7.082;2023-02-11T18:40:18;86.07;;;54.22;;
48327;SDS011;34136;51.022;7.082;2023-02-11T18:43:13;91.90;;;52.10;;
48327;SDS011;34136;51.022;7.082;2023-02-11T18:46:00;88.18;;;55.13;;
48327;SDS011;34136;51.022;7.082;2023-02-11T18:52:06;80.70;;;49.55;;
48327;SDS011;34136;51.022;7.082;2023-02-11T18:54:52;87.15;;;52.15;;
48327;SDS011;34136;51.022;7.082;2023-02-11T18:57:38;81.22;;;52.67;;
48327;SDS011;34136;51.022;7.082;2023-02-11T19:00:45;93.80;;;54.28;;
48327;SDS011;34136;51.022;7.082;2023-02-11T19:03:33;87.10;;;54.13;;
48327;SDS011;34136;51.022;7.082;2023-02-11T19:06:23;83.20;;;52.72;;
48327;SDS011;34136;51.022;7.082;2023-02-11T19:09:11;91.00;;;56.47;;
48327;SDS011;34136;51.022;7.082;2023-02-11T19:16:14;88.68;;;55.33;;
48327;SDS011;34136;51.022;7.082;2023-02-11T19:19:01;87.53;;;55.55;;
48327;SDS011;34136;51.022;7.082;2023-02-11T19:21:49;89.40;;;56.67;;
48327;SDS011;34136;51.022;7.082;2023-02-11T19:24:40;84.37;;;53.50;;
48327;SDS011;34136;51.022;7.082;2023-02-11T19:27:28;82.15;;;51.78;;
48327;SDS011;34136;51.022;7.082;2023-02-11T19:30:17;83.80;;;53.55;;
48327;SDS011;34136;51.022;7.082;2023-02-11T19:33:06;76.00;;;50.58;;
48327;SDS011;34136;51.022;7.082;2023-02-11T19:35:53;86.03;;;52.00;;
48327;SDS011;34136;51.022;7.082;2023-02-11T19:38:50;82.53;;;52.50;;
48327;SDS011;34136;51.022;7.082;2023-02-11T19:41:42;77.30;;;50.03;;
48327;SDS011;34136;51.022;7.082;2023-02-11T19:44:33;77.65;;;49.38;;
48327;SDS011;34136;51.022;7.082;2023-02-11T19:47:19;82.22;;;52.25;;
48327;SDS011;34136;51.022;7.082;2023-02-11T19:50:08;81.38;;;50.97;;
48327;SDS011;34136;51.022;7.082;2023-02-11T19:52:57;83.78;;;52.35;;
48327;SDS011;34136;51.022;7.082;2023-02-11T19:55:47;82.43;;;52.50;;
48327;SDS011;34136;51.022;7.082;2023-02-11T19:58:34;77.68;;;50.72;;
48327;SDS011;34136;51.022;7.082;2023-02-11T20:01:24;78.78;;;50.25;;
48327;SDS011;34136;51.022;7.082;2023-02-11T20:04:13;78.28;;;50.38;;
48327;SDS011;34136;51.022;7.082;2023-02-11T20:07:02;79.88;;;51.00;;
48327;SDS011;34136;51.022;7.082;2023-02-11T20:09:49;77.60;;;50.72;;
48327;SDS011;34136;51.022;7.082;2023-02-11T20:12:35;79.75;;;51.75;;
48327;SDS011;34136;51.022;7.082;2023-02-11T20:15:23;77.70;;;51.03;;
48327;SDS011;34136;51.022;7.082;2023-02-11T20:18:12;76.43;;;50.15;;
48327;SDS011;34136;51.022;7.082;2023-02-11T20:20:59;81.20;;;51.05;;
48327;SDS011;34136;51.022;7.082;2023-02-11T20:23:54;78.15;;;49.25;;
48327;SDS011;34136;51.022;7.082;2023-02-11T20:26:41;82.95;;;51.80;;
48327;SDS011;34136;51.022;7.082;2023-02-11T20:29:28;78.13;;;49.97;;